createdAt,value
2023-01-21T00:01:03.824Z,27.80
2023-01-21T00:03:30.752Z,23.63
2023-01-21T00:05:58.377Z,26.23
2023-01-21T00:08:25.997Z,25.80
2023-01-21T00:10:52.827Z,25.43
2023-01-21T00:13:19.527Z,27.23
2023-01-21T00:15:46.333Z,29.73
2023-01-21T00:18:13.070Z,32.60
2023-01-21T00:20:40.084Z,35.37
2023-01-21T00:23:06.743Z,27.73
2023-01-21T00:25:33.397Z,30.37
2023-01-21T00:28:00.347Z,27.67
2023-01-21T00:30:27.165Z,28.00
2023-01-21T00:32:54.033Z,31.47
2023-01-21T00:35:20.698Z,31.87
2023-01-21T00:37:47.353Z,22.83
2023-01-21T00:40:14.153Z,24.30
2023-01-21T00:42:41.194Z,17.67
2023-01-21T00:45:08.808Z,17.67
2023-01-21T00:47:35.567Z,19.33
2023-01-21T00:50:02.649Z,20.20
2023-01-21T00:52:29.379Z,26.47
2023-01-21T00:54:56.028Z,25.60
2023-01-21T00:57:22.860Z,26.97
2023-01-21T00:59:49.663Z,29.93
2023-01-21T01:02:16.324Z,24.67
2023-01-21T01:04:43.068Z,23.17
2023-01-21T01:07:11.102Z,25.13
2023-01-21T01:09:37.767Z,22.50
2023-01-21T01:12:04.784Z,29.20
2023-01-21T01:14:31.672Z,23.60
2023-01-21T01:16:58.268Z,19.97
2023-01-21T01:19:25.123Z,23.20
2023-01-21T01:21:51.842Z,24.07
2023-01-21T01:24:18.506Z,27.83
2023-01-21T01:26:45.106Z,21.70
2023-01-21T01:29:13.479Z,20.87
2023-01-21T01:31:40.434Z,19.33
2023-01-21T01:34:07.457Z,22.37
2023-01-21T01:36:34.360Z,23.40
2023-01-21T01:39:01.570Z,20.60
2023-01-21T01:41:30.234Z,21.63
2023-01-21T01:44:02.580Z,21.17
2023-01-21T01:46:32.413Z,41.47
2023-01-21T01:49:01.842Z,18.70
2023-01-21T01:51:53.034Z,19.73
2023-01-21T01:54:28.721Z,21.13
2023-01-21T01:56:59.012Z,18.17
2023-01-21T01:59:26.598Z,24.40
2023-01-21T02:01:53.805Z,22.87
2023-01-21T02:04:26.288Z,19.33
2023-01-21T02:06:54.997Z,24.93
2023-01-21T02:09:22.168Z,18.87
2023-01-21T02:11:49.274Z,21.70
2023-01-21T02:14:17.119Z,26.23
2023-01-21T02:17:08.289Z,21.63
2023-01-21T02:20:13.842Z,26.43
2023-01-21T02:23:11.311Z,20.80
2023-01-21T02:25:59.134Z,24.70
2023-01-21T02:28:44.513Z,17.27
2023-01-21T02:31:39.511Z,15.93
2023-01-21T02:34:15.396Z,21.07
2023-01-21T02:37:03.695Z,23.30
2023-01-21T02:39:42.355Z,19.97
2023-01-21T02:42:16.471Z,14.23
2023-01-21T02:44:51.118Z,17.33
2023-01-21T02:47:33.389Z,24.02
2023-01-21T02:50:12.027Z,29.37
2023-01-21T02:52:38.710Z,39.00
2023-01-21T02:55:12.680Z,51.63
2023-01-21T02:57:51.266Z,38.08
2023-01-21T03:00:28.365Z,32.03
2023-01-21T03:03:22.316Z,17.83
2023-01-21T03:06:18.528Z,14.93
2023-01-21T03:08:52.582Z,17.33
2023-01-21T03:11:20.920Z,18.20
2023-01-21T03:14:27.945Z,22.27
2023-01-21T03:17:18.427Z,16.70
2023-01-21T03:20:10.965Z,22.23
2023-01-21T03:22:39.121Z,24.53
2023-01-21T03:25:09.079Z,24.80
2023-01-21T03:27:39.602Z,25.17
2023-01-21T03:30:13.258Z,24.87
2023-01-21T03:32:43.061Z,25.17
2023-01-21T03:35:13.447Z,26.50
2023-01-21T03:37:55.597Z,20.80
2023-01-21T03:40:24.040Z,21.10
2023-01-21T03:42:52.712Z,24.57
2023-01-21T03:45:29.232Z,24.33
2023-01-21T03:48:01.407Z,18.63
2023-01-21T03:50:36.620Z,17.70
2023-01-21T03:53:03.636Z,24.90
2023-01-21T03:55:30.302Z,26.80
2023-01-21T03:57:57.035Z,36.20
2023-01-21T04:00:23.868Z,17.20
2023-01-21T04:02:50.734Z,18.93
2023-01-21T04:05:17.397Z,20.90
2023-01-21T04:07:52.749Z,20.30
2023-01-21T04:10:19.454Z,20.33
2023-01-21T04:12:47.325Z,18.80
2023-01-21T04:15:14.123Z,20.63
2023-01-21T04:17:40.776Z,20.03
2023-01-21T04:20:08.568Z,21.53
2023-01-21T04:22:35.250Z,15.43
2023-01-21T04:25:01.921Z,17.13
2023-01-21T04:27:28.758Z,17.67
2023-01-21T04:29:55.397Z,16.53
2023-01-21T04:32:22.012Z,16.00
2023-01-21T04:34:48.761Z,15.47
2023-01-21T04:37:15.445Z,18.43
2023-01-21T04:39:42.240Z,22.47
2023-01-21T04:42:08.924Z,16.87
2023-01-21T04:44:35.514Z,20.97
2023-01-21T04:47:02.235Z,30.60
2023-01-21T04:49:33.550Z,28.97
2023-01-21T04:52:00.227Z,29.47
2023-01-21T04:54:26.936Z,25.30
2023-01-21T04:56:53.631Z,19.77
2023-01-21T04:59:20.994Z,18.63
2023-01-21T05:01:47.679Z,18.87
2023-01-21T05:04:14.394Z,22.53
2023-01-21T05:06:41.091Z,19.50
2023-01-21T05:09:08.053Z,21.90
2023-01-21T05:11:34.672Z,23.03
2023-01-21T05:14:01.553Z,32.60
2023-01-21T05:16:28.355Z,29.10
2023-01-21T05:18:55.059Z,37.70
2023-01-21T05:21:22.061Z,40.87
2023-01-21T05:23:48.780Z,35.03
2023-01-21T05:26:15.486Z,27.77
2023-01-21T05:28:42.212Z,29.97
2023-01-21T05:31:08.995Z,40.23
2023-01-21T05:33:36.234Z,35.03
2023-01-21T05:36:04.088Z,41.10
2023-01-21T05:38:31.101Z,33.83
2023-01-21T05:40:59.776Z,31.23
2023-01-21T05:43:27.208Z,33.10
2023-01-21T05:45:54.665Z,44.43
2023-01-21T05:48:21.747Z,30.67
2023-01-21T05:50:49.635Z,25.70
2023-01-21T05:53:17.699Z,17.63
2023-01-21T05:55:44.358Z,22.93
2023-01-21T05:58:11.806Z,23.73
2023-01-21T06:00:38.645Z,26.13
2023-01-21T06:03:05.355Z,27.10
2023-01-21T06:05:32.066Z,26.37
2023-01-21T06:07:58.718Z,28.07
2023-01-21T06:10:25.398Z,36.87
2023-01-21T06:12:52.177Z,34.07
2023-01-21T06:15:19.765Z,34.03
2023-01-21T06:17:47.583Z,32.73
2023-01-21T06:20:14.620Z,23.60
2023-01-21T06:22:41.455Z,27.27
2023-01-21T06:25:08.624Z,25.53
2023-01-21T06:27:37.381Z,24.73
2023-01-21T06:30:09.629Z,32.23
2023-01-21T06:32:36.829Z,31.17
2023-01-21T06:35:04.463Z,25.07
2023-01-21T06:37:31.363Z,31.13
2023-01-21T06:39:58.012Z,23.90
2023-01-21T06:42:24.740Z,35.93
2023-01-21T06:44:51.427Z,38.67
2023-01-21T06:47:18.168Z,42.50
2023-01-21T06:49:44.949Z,38.90
2023-01-21T06:52:11.591Z,32.00
2023-01-21T06:54:38.296Z,33.27
2023-01-21T06:57:05.011Z,42.87
2023-01-21T06:59:31.691Z,44.87
2023-01-21T07:01:59.460Z,50.87
2023-01-21T07:04:27.553Z,53.43
2023-01-21T07:06:54.634Z,47.40
2023-01-21T07:09:22.427Z,44.20
2023-01-21T07:11:49.949Z,44.30
2023-01-21T07:14:16.781Z,48.33
2023-01-21T07:16:43.627Z,51.57
2023-01-21T07:19:11.749Z,55.87
2023-01-21T07:21:41.342Z,62.77
2023-01-21T07:24:09.575Z,70.30
2023-01-21T07:26:38.210Z,57.70
2023-01-21T07:29:09.453Z,36.50
2023-01-21T07:31:36.449Z,35.77
2023-01-21T07:34:03.706Z,34.90
2023-01-21T07:36:30.694Z,38.73
2023-01-21T07:38:59.389Z,35.43
2023-01-21T07:41:26.206Z,57.67
2023-01-21T07:43:53.000Z,33.87
2023-01-21T07:46:21.335Z,38.47
2023-01-21T07:48:51.907Z,46.27
2023-01-21T07:51:20.010Z,39.53
2023-01-21T07:53:46.930Z,43.57
2023-01-21T07:56:15.064Z,37.47
2023-01-21T07:58:42.011Z,32.00
2023-01-21T08:01:10.387Z,28.13
2023-01-21T08:03:37.600Z,36.03
2023-01-21T08:06:05.616Z,51.37
2023-01-21T08:08:33.443Z,46.03
2023-01-21T08:11:00.407Z,51.47
2023-01-21T08:13:27.073Z,33.23
2023-01-21T08:15:56.879Z,32.03
2023-01-21T08:18:24.646Z,30.07
2023-01-21T08:20:55.955Z,18.63
2023-01-21T08:23:22.718Z,17.23
2023-01-21T08:25:49.482Z,17.30
2023-01-21T08:28:16.594Z,45.07
2023-01-21T08:30:43.324Z,45.67
2023-01-21T08:33:10.166Z,43.73
2023-01-21T08:35:36.896Z,44.83
2023-01-21T08:38:03.637Z,42.13
2023-01-21T08:40:30.325Z,47.90
2023-01-21T08:43:01.673Z,55.80
2023-01-21T08:45:29.554Z,54.17
2023-01-21T08:47:57.187Z,53.77
2023-01-21T08:50:24.271Z,36.20
2023-01-21T08:52:56.162Z,33.83
2023-01-21T08:55:27.145Z,29.30
2023-01-21T08:57:55.840Z,33.30
2023-01-21T09:00:23.878Z,33.97
2023-01-21T09:02:51.757Z,35.57
2023-01-21T09:05:19.996Z,35.37
2023-01-21T09:07:47.441Z,34.13
2023-01-21T09:10:34.494Z,34.13
2023-01-21T09:13:06.078Z,41.57
2023-01-21T09:15:41.280Z,47.27
2023-01-21T09:18:08.307Z,49.83
2023-01-21T09:20:35.469Z,46.60
2023-01-21T09:23:02.204Z,45.03
2023-01-21T09:25:29.272Z,45.23
2023-01-21T09:27:55.933Z,45.13
2023-01-21T09:30:22.673Z,47.60
2023-01-21T09:32:49.411Z,45.70
2023-01-21T09:35:16.418Z,45.40
2023-01-21T09:37:43.193Z,48.90
2023-01-21T09:40:15.672Z,48.30
2023-01-21T09:42:42.776Z,60.03
2023-01-21T09:45:15.287Z,54.60
2023-01-21T09:47:44.939Z,61.77
2023-01-21T09:50:19.048Z,59.72
2023-01-21T09:52:52.206Z,60.80
2023-01-21T09:55:32.669Z,59.17
2023-01-21T09:58:17.662Z,60.90
2023-01-21T10:01:00.495Z,65.38
2023-01-21T10:04:02.587Z,61.42
2023-01-21T10:06:51.516Z,48.83
2023-01-21T10:09:41.246Z,47.50
2023-01-21T10:12:31.961Z,52.67
2023-01-21T10:15:25.191Z,58.77
2023-01-21T10:18:08.150Z,70.53
2023-01-21T10:20:46.335Z,81.57
2023-01-21T10:23:13.026Z,98.03
2023-01-21T10:25:41.306Z,105.00
2023-01-21T10:28:21.690Z,88.68
2023-01-21T10:30:54.506Z,96.43
2023-01-21T10:33:25.727Z,60.40
2023-01-21T10:36:07.319Z,95.53
2023-01-21T10:38:49.050Z,53.05
2023-01-21T10:41:40.554Z,24.98
2023-01-21T10:44:25.930Z,104.85
2023-01-21T10:50:04.547Z,101.93
2023-01-21T10:52:48.612Z,25.23
2023-01-21T10:55:33.353Z,98.45
2023-01-21T10:58:20.283Z,86.63
2023-01-21T11:00:50.257Z,103.70
2023-01-21T11:03:24.322Z,130.65
2023-01-21T11:05:51.043Z,116.70
2023-01-21T11:08:22.962Z,120.60
2023-01-21T11:10:55.539Z,82.50
2023-01-21T11:13:23.002Z,74.30
2023-01-21T11:15:57.241Z,91.43
2023-01-21T11:18:26.937Z,71.00
2023-01-21T11:20:57.959Z,102.82
2023-01-21T11:23:39.257Z,103.55
2023-01-21T11:26:16.172Z,48.08
2023-01-21T11:28:42.856Z,29.95
2023-01-21T11:31:12.786Z,63.55
2023-01-21T11:33:41.781Z,45.53
2023-01-21T11:36:13.270Z,55.15
2023-01-21T11:38:40.554Z,64.97
2023-01-21T11:41:11.111Z,63.50
2023-01-21T11:43:46.157Z,44.55
2023-01-21T11:49:07.891Z,55.45
2023-01-21T11:51:39.845Z,59.00
2023-01-21T11:54:12.078Z,7.95
2023-01-21T11:56:39.709Z,2.38
2023-01-21T11:59:41.861Z,2.72
2023-01-21T12:02:11.275Z,5.10
2023-01-21T12:04:43.113Z,7.40
2023-01-21T12:07:19.966Z,7.70
2023-01-21T12:10:03.172Z,12.10
2023-01-21T12:12:44.422Z,5.35
2023-01-21T12:15:17.827Z,0.70
2023-01-21T12:18:25.051Z,4.25
2023-01-21T12:21:23.662Z,8.45
2023-01-21T12:24:14.171Z,5.88
2023-01-21T12:26:48.052Z,16.42
2023-01-21T12:29:19.524Z,20.42
2023-01-21T12:31:59.209Z,14.57
2023-01-21T12:34:31.358Z,13.88
2023-01-21T12:37:04.360Z,8.15
2023-01-21T12:39:37.316Z,24.30
2023-01-21T12:42:07.008Z,13.25
2023-01-21T12:44:53.953Z,19.10
2023-01-21T12:47:27.896Z,13.98
2023-01-21T12:50:06.996Z,18.67
2023-01-21T12:53:05.267Z,22.33
2023-01-21T12:55:50.457Z,10.85
2023-01-21T12:58:21.009Z,7.18
2023-01-21T13:00:51.097Z,3.88
2023-01-21T13:03:33.489Z,1.90
2023-01-21T13:06:06.313Z,6.43
2023-01-21T13:08:35.968Z,8.75
2023-01-21T13:11:21.146Z,18.98
2023-01-21T13:13:57.477Z,23.20
2023-01-21T13:16:26.535Z,27.48
2023-01-21T13:18:55.397Z,39.00
2023-01-21T13:21:40.764Z,25.63
2023-01-21T13:26:42.818Z,16.27
2023-01-21T13:29:19.317Z,18.00
2023-01-21T13:32:16.714Z,31.65
2023-01-21T13:34:55.600Z,31.67
2023-01-21T13:37:43.271Z,31.50
2023-01-21T13:40:41.498Z,24.00
2023-01-21T13:43:20.798Z,39.95
2023-01-21T13:45:50.732Z,49.00
2023-01-21T13:48:42.695Z,33.85
2023-01-21T13:51:33.429Z,46.58
2023-01-21T13:54:18.604Z,68.82
2023-01-21T13:57:17.541Z,57.83
2023-01-21T13:59:57.745Z,58.10
2023-01-21T14:02:58.091Z,75.80
2023-01-21T14:05:41.811Z,66.35
2023-01-21T14:08:19.278Z,75.25
2023-01-21T14:10:52.836Z,89.55
2023-01-21T14:13:41.631Z,83.18
2023-01-21T14:16:20.961Z,78.75
2023-01-21T14:18:59.591Z,67.28
2023-01-21T14:21:39.278Z,73.53
2023-01-21T14:24:27.893Z,14.48
2023-01-21T14:27:07.102Z,17.27
2023-01-21T14:29:56.035Z,31.92
2023-01-21T14:32:30.789Z,72.53
2023-01-21T14:35:11.715Z,42.15
2023-01-21T14:38:09.450Z,21.85
2023-01-21T14:40:46.223Z,12.77
2023-01-21T14:43:40.509Z,39.45
2023-01-21T14:46:27.378Z,13.38
2023-01-21T14:49:06.501Z,7.15
2023-01-21T14:51:43.332Z,11.30
2023-01-21T14:54:14.192Z,27.00
2023-01-21T14:56:56.860Z,23.75
2023-01-21T15:02:42.397Z,1.70
2023-01-21T15:05:28.770Z,14.50
2023-01-21T15:08:08.727Z,10.45
2023-01-21T15:10:40.776Z,16.17
2023-01-21T15:13:40.056Z,9.20
2023-01-21T15:16:26.864Z,11.07
2023-01-21T15:19:08.758Z,14.57
2023-01-21T15:21:41.445Z,17.10
2023-01-21T15:24:25.901Z,18.30
2023-01-21T15:27:11.393Z,12.25
2023-01-21T15:29:39.834Z,14.90
2023-01-21T15:32:40.359Z,1.35
2023-01-21T15:35:16.410Z,22.63
2023-01-21T15:37:46.892Z,22.65
2023-01-21T15:40:24.273Z,37.53
2023-01-21T15:43:15.911Z,49.10
2023-01-21T15:46:16.596Z,21.75
2023-01-21T15:48:58.459Z,44.78
2023-01-21T15:51:43.431Z,24.67
2023-01-21T15:54:45.977Z,25.67
2023-01-21T15:57:19.056Z,20.02
2023-01-21T16:00:07.234Z,12.65
2023-01-21T16:02:47.523Z,5.88
2023-01-21T16:05:57.877Z,13.15
2023-01-21T16:08:30.492Z,27.95
2023-01-21T16:11:31.610Z,50.72
2023-01-21T16:14:36.805Z,44.55
2023-01-21T16:17:26.930Z,46.73
2023-01-21T16:20:01.812Z,40.50
2023-01-21T16:22:32.772Z,44.15
2023-01-21T16:25:04.428Z,55.22
2023-01-21T16:27:32.109Z,46.10
2023-01-21T16:30:12.101Z,21.55
2023-01-21T16:32:39.351Z,20.75
2023-01-21T16:35:06.630Z,31.98
2023-01-21T16:37:34.021Z,12.57
2023-01-21T16:40:09.545Z,31.42
2023-01-21T16:42:38.241Z,24.80
2023-01-21T16:45:14.294Z,9.15
2023-01-21T16:47:41.480Z,14.05
2023-01-21T16:50:32.185Z,19.90
2023-01-21T16:53:05.757Z,53.30
2023-01-21T16:55:32.617Z,81.88
2023-01-21T16:58:21.087Z,69.43
2023-01-21T17:01:10.709Z,49.92
2023-01-21T17:03:38.407Z,44.42
2023-01-21T17:06:15.740Z,65.53
2023-01-21T17:08:51.900Z,47.90
2023-01-21T17:11:18.788Z,37.20
2023-01-21T17:13:46.157Z,39.22
2023-01-21T17:16:34.075Z,58.03
2023-01-21T17:19:08.501Z,28.13
2023-01-21T17:21:46.496Z,39.97
2023-01-21T17:24:21.374Z,43.53
2023-01-21T17:26:51.989Z,51.53
2023-01-21T17:29:27.626Z,39.22
2023-01-21T17:32:27.868Z,45.05
2023-01-21T17:35:12.318Z,37.95
2023-01-21T17:37:51.485Z,39.77
2023-01-21T17:40:28.782Z,37.45
2023-01-21T17:42:56.920Z,37.70
2023-01-21T17:45:31.590Z,32.58
2023-01-21T17:48:09.579Z,41.92
2023-01-21T17:50:44.325Z,49.03
2023-01-21T17:53:21.255Z,71.95
2023-01-21T17:56:06.460Z,25.15
2023-01-21T17:58:47.105Z,23.90
2023-01-21T18:01:14.264Z,18.13
2023-01-21T18:03:41.452Z,28.67
2023-01-21T18:06:20.828Z,24.77
2023-01-21T18:08:47.557Z,24.88
2023-01-21T18:11:16.445Z,43.33
2023-01-21T18:13:43.558Z,75.00
2023-01-21T18:16:11.267Z,15.50
2023-01-21T18:18:39.052Z,22.45
2023-01-21T18:21:06.339Z,46.53
2023-01-21T18:23:33.568Z,49.97
2023-01-21T18:26:00.557Z,63.83
2023-01-21T18:28:28.976Z,63.47
2023-01-21T18:30:57.590Z,39.65
2023-01-21T18:33:25.378Z,42.17
2023-01-21T18:35:52.923Z,60.05
2023-01-21T18:38:27.115Z,39.75
2023-01-21T18:40:55.561Z,28.70
2023-01-21T18:43:22.992Z,26.88
2023-01-21T18:45:49.728Z,19.58
2023-01-21T18:48:17.506Z,25.17
2023-01-21T18:50:44.493Z,23.92
2023-01-21T18:53:13.007Z,23.38
2023-01-21T18:55:43.866Z,29.05
2023-01-21T18:58:17.311Z,20.48
2023-01-21T19:00:44.007Z,53.50
2023-01-21T19:03:14.037Z,54.20
2023-01-21T19:05:44.077Z,54.63
2023-01-21T19:08:21.876Z,48.72
2023-01-21T19:10:48.972Z,13.27
2023-01-21T19:13:15.801Z,4.43
2023-01-21T19:15:42.668Z,8.25
2023-01-21T19:18:11.875Z,5.50
2023-01-21T19:20:41.883Z,14.57
2023-01-21T19:23:18.375Z,13.25
2023-01-21T19:25:51.299Z,13.23
2023-01-21T19:28:18.817Z,25.15
2023-01-21T19:30:46.569Z,49.08
2023-01-21T19:33:13.263Z,19.50
2023-01-21T19:35:43.788Z,37.33
2023-01-21T19:38:20.655Z,35.60
2023-01-21T19:40:47.929Z,42.58
2023-01-21T19:43:16.832Z,43.35
2023-01-21T19:45:44.407Z,60.47
2023-01-21T19:48:16.771Z,53.60
2023-01-21T19:50:43.613Z,39.42
2023-01-21T19:53:13.176Z,40.28
2023-01-21T19:55:40.556Z,171.57
2023-01-21T19:58:28.895Z,78.80
2023-01-21T20:00:55.717Z,93.57
2023-01-21T20:03:25.363Z,86.82
2023-01-21T20:05:54.783Z,94.57
2023-01-21T20:08:28.560Z,121.22
2023-01-21T20:10:55.891Z,118.53
2023-01-21T20:13:22.831Z,101.13
2023-01-21T20:15:51.966Z,106.30
2023-01-21T20:18:26.228Z,92.40
2023-01-21T20:20:53.756Z,98.45
2023-01-21T20:23:22.461Z,91.93
2023-01-21T20:25:54.437Z,87.07
2023-01-21T20:28:26.163Z,88.32
2023-01-21T20:30:54.730Z,115.18
2023-01-21T20:33:23.612Z,130.75
2023-01-21T20:35:52.896Z,104.25
2023-01-21T20:38:31.479Z,79.60
2023-01-21T20:40:59.216Z,67.55
2023-01-21T20:43:27.118Z,60.22
2023-01-21T20:45:56.282Z,61.83
2023-01-21T20:48:26.988Z,58.22
2023-01-21T20:50:54.540Z,52.05
2023-01-21T20:53:21.255Z,34.20
2023-01-21T20:55:50.588Z,26.15
2023-01-21T20:58:18.671Z,74.75
2023-01-21T21:00:46.840Z,46.72
2023-01-21T21:03:18.321Z,50.85
2023-01-21T21:05:46.396Z,57.88
2023-01-21T21:08:21.730Z,71.72
2023-01-21T21:10:50.935Z,75.95
2023-01-21T21:13:17.861Z,36.58
2023-01-21T21:15:46.649Z,36.92
2023-01-21T21:18:14.468Z,34.03
2023-01-21T21:20:41.720Z,23.60
2023-01-21T21:23:13.212Z,16.85
2023-01-21T21:25:42.643Z,12.93
2023-01-21T21:28:17.630Z,4.97
2023-01-21T21:33:19.751Z,2.95
2023-01-21T21:35:46.999Z,1.00
2023-01-21T21:38:21.840Z,31.25
2023-01-21T21:40:54.974Z,9.27
2023-01-21T21:43:35.837Z,1.60
2023-01-21T21:46:28.986Z,2.55
2023-01-21T21:48:55.810Z,3.17
2023-01-21T21:51:23.382Z,3.10
2023-01-21T21:53:50.678Z,3.72
2023-01-21T21:56:23.319Z,11.15
2023-01-21T21:58:51.676Z,6.65
2023-01-21T22:01:19.869Z,5.93
2023-01-21T22:03:47.215Z,3.78
2023-01-21T22:06:14.852Z,3.30
2023-01-21T22:08:42.722Z,2.95
2023-01-21T22:11:13.771Z,1.80
2023-01-21T22:13:43.431Z,3.55
2023-01-21T22:16:19.158Z,21.65
2023-01-21T22:18:53.392Z,18.20
2023-01-21T22:21:23.461Z,10.63
2023-01-21T22:23:50.526Z,12.05
2023-01-21T22:26:21.811Z,14.85
2023-01-21T22:28:51.268Z,20.58
2023-01-21T22:31:28.667Z,13.25
2023-01-21T22:33:56.588Z,13.70
2023-01-21T22:36:25.860Z,15.35
2023-01-21T22:38:53.003Z,12.20
2023-01-21T22:41:22.404Z,10.15
2023-01-21T22:43:49.936Z,7.00
2023-01-21T22:46:19.862Z,13.20
2023-01-21T22:48:46.937Z,22.92
2023-01-21T22:51:15.882Z,38.85
2023-01-21T22:53:45.529Z,43.90
2023-01-21T22:56:14.836Z,28.77
2023-01-21T22:58:42.501Z,26.77
2023-01-21T23:01:19.613Z,23.80
2023-01-21T23:03:46.327Z,24.13
2023-01-21T23:06:12.985Z,16.63
2023-01-21T23:08:39.616Z,13.80
2023-01-21T23:11:08.442Z,15.68
2023-01-21T23:13:35.623Z,22.02
2023-01-21T23:16:05.427Z,10.30
2023-01-21T23:18:32.592Z,6.68
2023-01-21T23:20:59.520Z,3.10
2023-01-21T23:23:26.248Z,4.60
2023-01-21T23:25:53.005Z,6.68
2023-01-21T23:28:19.625Z,6.50
2023-01-21T23:30:46.454Z,6.30
2023-01-21T23:33:13.501Z,8.10
2023-01-21T23:35:40.144Z,7.63
2023-01-21T23:38:06.940Z,8.57
2023-01-21T23:40:33.616Z,3.30
2023-01-21T23:43:00.307Z,2.80
2023-01-21T23:45:27.264Z,2.80
2023-01-21T23:47:54.594Z,2.90
2023-01-21T23:50:28.119Z,4.38
2023-01-21T23:52:55.642Z,5.38
2023-01-21T23:55:22.290Z,55.97
2023-01-21T23:57:48.922Z,125.15
